Time,TemperatureF,DewpointF,PressureIn,WindDirection,WindDirectionDegrees,WindSpeedMPH,WindSpeedGustMPH,Humidity,HourlyPrecipIn,Conditions,Clouds,dailyrainin,SoftwareType,DateUTC
2013-11-26 00:00:00,39.6,35.2,30.34,ENE,70,5.0,5.0,84,0.00,,,0.00,Wunderground v.1.15,2013-11-26 05:00:00,
2013-11-26 00:05:00,39.7,35.3,30.34,East,83,4.0,5.0,84,0.00,,,0.00,Wunderground v.1.15,2013-11-26 05:05:00,
2013-11-26 00:10:00,39.6,35.2,30.34,ENE,61,4.0,5.0,84,0.00,,,0.00,Wunderground v.1.15,2013-11-26 05:10:00,
2013-11-26 00:15:00,39.6,35.5,30.34,ENE,69,5.0,6.0,85,0.00,,,0.00,Wunderground v.1.15,2013-11-26 05:15:00,
2013-11-26 00:20:00,39.6,35.5,30.34,ENE,74,5.0,5.0,85,0.00,,,0.00,Wunderground v.1.15,2013-11-26 05:20:00,
2013-11-26 00:25:00,39.7,35.6,30.34,ENE,77,4.0,5.0,85,0.00,,,0.00,Wunderground v.1.15,2013-11-26 05:25:00,
2013-11-26 00:30:00,39.7,35.9,30.34,ENE,68,4.0,4.0,86,0.00,,,0.00,Wunderground v.1.15,2013-11-26 05:30:00,
2013-11-26 00:35:00,40.1,36.5,30.34,ENE,60,5.0,8.0,87,0.00,,,0.00,Wunderground v.1.15,2013-11-26 05:35:00,
2013-11-26 00:40:00,40.3,36.7,30.34,ENE,77,5.0,5.0,87,0.00,,,0.00,Wunderground v.1.15,2013-11-26 05:40:00,
2013-11-26 00:45:00,40.4,36.8,30.33,ESE,117,5.0,5.0,87,0.00,,,0.00,Wunderground v.1.15,2013-11-26 05:45:00,
2013-11-26 00:50:00,40.5,36.9,30.32,ENE,72,4.0,4.0,87,0.00,,,0.00,Wunderground v.1.15,2013-11-26 05:50:00,
2013-11-26 00:55:00,40.5,36.9,30.32,ENE,77,3.0,4.0,87,0.00,,,0.00,Wunderground v.1.15,2013-11-26 05:55:00,
2013-11-26 01:00:00,40.3,36.7,30.32,ENE,60,3.0,4.0,87,0.00,,,0.00,Wunderground v.1.15,2013-11-26 06:00:00,
2013-11-26 01:10:00,40.4,37.1,30.31,East,81,5.0,7.0,88,0.00,,,0.00,Wunderground v.1.15,2013-11-26 06:10:00,
2013-11-26 01:15:00,40.6,37.3,30.31,ENE,74,5.0,7.0,88,0.00,,,0.00,Wunderground v.1.15,2013-11-26 06:15:00,
2013-11-26 01:20:00,40.8,37.8,30.31,NNW,342,5.0,5.0,89,0.00,,,0.00,Wunderground v.1.15,2013-11-26 06:20:00,
2013-11-26 01:25:00,41.1,38.1,30.32,NNE,33,4.0,5.0,89,0.00,,,0.00,Wunderground v.1.15,2013-11-26 06:25:00,
2013-11-26 01:30:00,40.7,37.4,30.32,North,6,4.0,4.0,88,0.00,,,0.00,Wunderground v.1.15,2013-11-26 06:30:00,
2013-11-26 01:35:00,40.4,37.1,30.31,NNW,342,4.0,5.0,88,0.00,,,0.00,Wunderground v.1.15,2013-11-26 06:35:00,
2013-11-26 01:40:00,40.2,36.9,30.31,NNE,25,5.0,5.0,88,0.00,,,0.00,Wunderground v.1.15,2013-11-26 06:40:00,
2013-11-26 01:45:00,40.1,37.1,30.31,North,8,5.0,5.0,89,0.00,,,0.00,Wunderground v.1.15,2013-11-26 06:45:00,
2013-11-26 01:50:00,40.1,37.1,30.30,ENE,72,5.0,5.0,89,0.00,,,0.00,Wunderground v.1.15,2013-11-26 06:50:00,
2013-11-26 01:55:00,40.3,37.3,30.30,ENE,72,4.0,5.0,89,0.00,,,0.00,Wunderground v.1.15,2013-11-26 06:55:00,
2013-11-26 02:00:00,40.5,37.5,30.30,NNE,23,4.0,4.0,89,0.00,,,0.00,Wunderground v.1.15,2013-11-26 07:00:00,
2013-11-26 02:10:00,40.8,37.8,30.30,ENE,77,4.0,5.0,89,0.00,,,0.00,Wunderground v.1.15,2013-11-26 07:10:00,
2013-11-26 02:20:00,41.2,38.2,30.29,ENE,60,4.0,5.0,89,0.00,,,0.00,Wunderground v.1.15,2013-11-26 07:20:00,
2013-11-26 02:30:00,41.2,38.2,30.29,ENE,68,4.0,4.0,89,0.00,,,0.00,Wunderground v.1.15,2013-11-26 07:30:00,
2013-11-26 02:35:00,41.3,38.3,30.28,NE,39,3.0,5.0,89,0.00,,,0.00,Wunderground v.1.15,2013-11-26 07:35:00,
2013-11-26 02:45:00,41.2,38.2,30.28,East,91,4.0,5.0,89,0.00,,,0.00,Wunderground v.1.15,2013-11-26 07:45:00,
2013-11-26 02:55:00,41.3,38.6,30.27,ENE,60,5.0,6.0,90,0.00,,,0.00,Wunderground v.1.15,2013-11-26 07:55:00,
2013-11-26 03:00:00,41.4,38.7,30.27,NE,45,5.0,5.0,90,0.00,,,0.00,Wunderground v.1.15,2013-11-26 08:00:00,
2013-11-26 03:10:00,41.8,39.1,30.27,NE,49,5.0,5.0,90,0.00,,,0.00,Wunderground v.1.15,2013-11-26 08:10:00,
2013-11-26 03:15:00,42.0,39.3,30.27,East,79,6.0,7.0,90,0.00,,,0.00,Wunderground v.1.15,2013-11-26 08:15:00,
2013-11-26 03:25:00,42.2,39.5,30.26,NE,41,5.0,5.0,90,0.00,,,0.00,Wunderground v.1.15,2013-11-26 08:25:00,
2013-11-26 03:30:00,42.4,39.7,30.26,East,84,5.0,5.0,90,0.00,,,0.00,Wunderground v.1.15,2013-11-26 08:30:00,
2013-11-26 03:35:00,42.6,39.9,30.26,NE,34,3.0,5.0,90,0.00,,,0.00,Wunderground v.1.15,2013-11-26 08:35:00,
2013-11-26 03:40:00,42.8,40.1,30.26,NNE,20,3.0,6.0,90,0.00,,,0.00,Wunderground v.1.15,2013-11-26 08:40:00,
2013-11-26 03:45:00,43.0,40.3,30.26,NNE,30,3.0,6.0,90,0.00,,,0.00,Wunderground v.1.15,2013-11-26 08:45:00,
2013-11-26 03:55:00,43.4,40.9,30.25,NE,51,2.0,4.0,91,0.00,,,0.00,Wunderground v.1.15,2013-11-26 08:55:00,
2013-11-26 04:00:00,43.7,41.2,30.24,East,89,4.0,7.0,91,0.00,,,0.00,Wunderground v.1.15,2013-11-26 09:00:00,
2013-11-26 04:10:00,44.0,41.5,30.24,NE,54,6.0,7.0,91,0.00,,,0.00,Wunderground v.1.15,2013-11-26 09:10:00,
2013-11-26 04:20:00,44.5,42.0,30.24,East,93,5.0,7.0,91,0.00,,,0.00,Wunderground v.1.15,2013-11-26 09:20:00,
2013-11-26 04:30:00,45.4,43.2,30.25,East,82,5.0,5.0,92,0.00,,,0.00,Wunderground v.1.15,2013-11-26 09:30:00,
2013-11-26 04:35:00,45.6,43.4,30.25,ENE,61,6.0,6.0,92,0.00,,,0.00,Wunderground v.1.15,2013-11-26 09:35:00,
2013-11-26 04:40:00,45.7,43.5,30.24,NE,44,6.0,6.0,92,0.00,,,0.00,Wunderground v.1.15,2013-11-26 09:40:00,
2013-11-26 04:45:00,45.9,43.7,30.24,SE,136,5.0,6.0,92,0.00,,,0.00,Wunderground v.1.15,2013-11-26 09:45:00,
2013-11-26 04:50:00,46.2,44.0,30.24,NE,54,4.0,4.0,92,0.00,,,0.00,Wunderground v.1.15,2013-11-26 09:50:00,
2013-11-26 05:00:00,46.3,44.1,30.24,ENE,72,5.0,5.0,92,0.00,,,0.00,Wunderground v.1.15,2013-11-26 10:00:00,
2013-11-26 05:10:00,46.6,44.4,30.24,NE,54,5.0,5.0,92,0.00,,,0.00,Wunderground v.1.15,2013-11-26 10:10:00,
2013-11-26 05:15:00,46.8,44.6,30.24,NE,49,5.0,5.0,92,0.00,,,0.00,Wunderground v.1.15,2013-11-26 10:15:00,
2013-11-26 05:20:00,47.0,44.8,30.23,East,84,5.0,5.0,92,0.00,,,0.00,Wunderground v.1.15,2013-11-26 10:20:00,
2013-11-26 05:30:00,47.3,45.1,30.23,ENE,68,5.0,5.0,92,0.00,,,0.00,Wunderground v.1.15,2013-11-26 10:30:00,
2013-11-26 05:35:00,47.4,45.2,30.23,ENE,71,5.0,5.0,92,0.00,,,0.00,Wunderground v.1.15,2013-11-26 10:35:00,
2013-11-26 05:40:00,47.5,45.3,30.23,ENE,64,5.0,5.0,92,0.00,,,0.00,Wunderground v.1.15,2013-11-26 10:40:00,
2013-11-26 05:45:00,47.4,45.2,30.22,ENE,75,4.0,5.0,92,0.00,,,0.00,Wunderground v.1.15,2013-11-26 10:45:00,
2013-11-26 05:50:00,47.5,45.3,30.22,East,82,4.0,5.0,92,0.00,,,0.00,Wunderground v.1.15,2013-11-26 10:50:00,
2013-11-26 06:00:00,47.6,45.4,30.22,ENE,78,4.0,5.0,92,0.00,,,0.00,Wunderground v.1.15,2013-11-26 11:00:00,
2013-11-26 06:10:00,47.9,45.7,30.23,NE,50,4.0,4.0,92,0.00,,,0.00,Wunderground v.1.15,2013-11-26 11:10:00,
2013-11-26 06:15:00,47.9,45.7,30.23,NNW,342,3.0,4.0,92,0.00,,,0.00,Wunderground v.1.15,2013-11-26 11:15:00,
2013-11-26 06:20:00,48.1,45.9,30.23,ENE,63,2.0,2.0,92,0.00,,,0.00,Wunderground v.1.15,2013-11-26 11:20:00,
2013-11-26 06:25:00,48.2,46.0,30.23,NE,42,3.0,3.0,92,0.00,,,0.00,Wunderground v.1.15,2013-11-26 11:25:00,
2013-11-26 06:35:00,48.3,46.1,30.22,NE,49,2.0,4.0,92,0.00,,,0.00,Wunderground v.1.15,2013-11-26 11:35:00,
2013-11-26 06:40:00,48.4,46.2,30.22,North,11,2.0,3.0,92,0.00,,,0.00,Wunderground v.1.15,2013-11-26 11:40:00,
2013-11-26 06:45:00,48.7,46.5,30.21,ENE,77,3.0,3.0,92,0.00,,,0.00,Wunderground v.1.15,2013-11-26 11:45:00,
2013-11-26 06:50:00,50.9,48.9,30.21,ESE,110,2.0,3.0,93,0.00,,,0.00,Wunderground v.1.15,2013-11-26 11:50:00,
2013-11-26 06:55:00,54.5,52.8,30.22,SE,138,3.0,7.0,94,0.00,,,0.00,Wunderground v.1.15,2013-11-26 11:55:00,
2013-11-26 07:00:00,56.8,54.8,30.22,SSE,148,5.0,5.0,93,0.00,,,0.00,Wunderground v.1.15,2013-11-26 12:00:00,
2013-11-26 07:10:00,59.6,55.7,30.21,SSE,165,7.0,8.0,87,0.00,,,0.00,Wunderground v.1.15,2013-11-26 12:10:00,
2013-11-26 07:20:00,60.5,56.0,30.21,ESE,111,8.0,8.0,85,0.00,,,0.00,Wunderground v.1.15,2013-11-26 12:20:00,
2013-11-26 07:30:00,60.8,55.9,30.20,South,178,7.0,9.0,84,0.00,,,0.00,Wunderground v.1.15,2013-11-26 12:30:00,
2013-11-26 07:35:00,60.9,55.7,30.20,SE,135,7.0,9.0,83,0.00,,,0.00,Wunderground v.1.15,2013-11-26 12:35:00,
2013-11-26 07:45:00,61.4,55.9,30.20,SSE,164,9.0,9.0,82,0.00,,,0.00,Wunderground v.1.15,2013-11-26 12:45:00,
2013-11-26 07:50:00,61.4,55.9,30.20,South,173,8.0,9.0,82,0.00,,,0.00,Wunderground v.1.15,2013-11-26 12:50:00,
2013-11-26 07:55:00,61.5,56.0,30.20,SE,145,7.0,9.0,82,0.00,,,0.00,Wunderground v.1.15,2013-11-26 12:55:00,
2013-11-26 08:05:00,61.7,56.1,30.19,SE,145,8.0,10.0,82,0.00,,,0.00,Wunderground v.1.15,2013-11-26 13:05:00,
2013-11-26 08:15:00,61.7,55.8,30.19,SE,144,7.0,10.0,81,0.00,,,0.00,Wunderground v.1.15,2013-11-26 13:15:00,
2013-11-26 08:25:00,61.9,56.0,30.18,SSE,155,8.0,9.0,81,0.00,,,0.00,Wunderground v.1.15,2013-11-26 13:25:00,
2013-11-26 08:35:00,61.8,56.2,30.18,SE,135,8.0,10.0,82,0.00,,,0.00,Wunderground v.1.15,2013-11-26 13:35:00,
2013-11-26 08:40:00,61.8,56.2,30.18,SSE,157,8.0,8.0,82,0.00,,,0.00,Wunderground v.1.15,2013-11-26 13:40:00,
2013-11-26 08:45:00,61.9,56.0,30.18,SSE,148,8.0,8.0,81,0.00,,,0.00,Wunderground v.1.15,2013-11-26 13:45:00,
2013-11-26 08:50:00,62.1,56.2,30.17,ESE,120,8.0,10.0,81,0.00,,,0.00,Wunderground v.1.15,2013-11-26 13:50:00,
2013-11-26 08:55:00,62.3,56.4,30.18,SE,139,9.0,10.0,81,0.00,,,0.00,Wunderground v.1.15,2013-11-26 13:55:00,
2013-11-26 09:00:00,62.4,56.1,30.18,ESE,105,9.0,10.0,80,0.00,,,0.00,Wunderground v.1.15,2013-11-26 14:00:00,
2013-11-26 09:10:00,62.5,56.2,30.18,South,170,8.0,8.0,80,0.00,,,0.00,Wunderground v.1.15,2013-11-26 14:10:00,
2013-11-26 09:20:00,62.7,56.8,30.18,SSE,158,8.0,8.0,81,0.00,,,0.00,Wunderground v.1.15,2013-11-26 14:20:00,
2013-11-26 09:25:00,62.8,56.9,30.18,South,177,8.0,8.0,81,0.00,,,0.00,Wunderground v.1.15,2013-11-26 14:25:00,
2013-11-26 09:35:00,62.5,56.9,30.17,South,176,8.0,10.0,82,0.00,,,0.00,Wunderground v.1.15,2013-11-26 14:35:00,
2013-11-26 09:45:00,62.8,57.2,30.17,SSW,211,9.0,11.0,82,0.00,,,0.00,Wunderground v.1.15,2013-11-26 14:45:00,
2013-11-26 09:55:00,62.8,57.6,30.17,SE,139,12.0,15.0,83,0.00,,,0.00,Wunderground v.1.15,2013-11-26 14:55:00,
2013-11-26 10:05:00,62.0,57.1,30.16,SSE,162,10.0,13.0,84,0.00,,,0.00,Wunderground v.1.15,2013-11-26 15:05:00,
2013-11-26 10:15:00,61.8,57.2,30.16,SE,132,8.0,9.0,85,0.00,,,0.00,Wunderground v.1.15,2013-11-26 15:15:00,
2013-11-26 10:25:00,62.1,57.9,30.17,SSE,160,9.0,14.0,86,0.00,,,0.00,Wunderground v.1.15,2013-11-26 15:25:00,
2013-11-26 10:35:00,60.8,57.2,30.15,SSE,167,12.0,14.0,88,0.12,,,0.02,Wunderground v.1.15,2013-11-26 15:35:00,
2013-11-26 10:45:00,60.7,57.4,30.14,SSE,150,8.0,9.0,89,0.04,,,0.02,Wunderground v.1.15,2013-11-26 15:45:00,
2013-11-26 10:55:00,60.6,57.3,30.14,SE,127,8.0,10.0,89,0.00,,,0.02,Wunderground v.1.15,2013-11-26 15:55:00,
2013-11-26 11:00:00,61.0,58.0,30.13,SE,144,11.0,15.0,90,0.00,,,0.02,Wunderground v.1.15,2013-11-26 16:00:00,
2013-11-26 11:10:00,60.7,57.4,30.12,SE,146,13.0,13.0,89,0.00,,,0.02,Wunderground v.1.15,2013-11-26 16:10:00,
2013-11-26 11:20:00,60.2,56.9,30.12,SE,142,9.0,9.0,89,0.00,,,0.02,Wunderground v.1.15,2013-11-26 16:20:00,
2013-11-26 11:30:00,60.8,57.8,30.10,ESE,115,9.0,9.0,90,0.00,,,0.02,Wunderground v.1.15,2013-11-26 16:30:00,
2013-11-26 11:35:00,60.8,57.8,30.10,SW,235,8.0,9.0,90,0.00,,,0.02,Wunderground v.1.15,2013-11-26 16:35:00,
2013-11-26 11:45:00,60.8,57.8,30.09,SE,124,8.0,11.0,90,0.00,,,0.03,Wunderground v.1.15,2013-11-26 16:45:00,
2013-11-26 11:55:00,60.7,57.7,30.08,SE,139,7.0,8.0,90,0.00,,,0.03,Wunderground v.1.15,2013-11-26 16:55:00,
2013-11-26 12:00:00,60.6,57.7,30.08,SSE,158,7.0,7.0,90,0.40,,,0.04,Wunderground v.1.15,2013-11-26 17:00:00,
2013-11-26 12:10:00,61.0,58.4,30.07,SSW,197,7.0,7.0,91,0.06,,,0.05,Wunderground v.1.15,2013-11-26 17:10:00,
2013-11-26 12:15:00,61.1,58.1,30.06,SSE,156,8.0,8.0,90,0.04,,,0.05,Wunderground v.1.15,2013-11-26 17:15:00,
2013-11-26 12:20:00,61.5,58.5,30.05,SSW,193,9.0,9.0,90,0.00,,,0.05,Wunderground v.1.15,2013-11-26 17:20:00,
2013-11-26 12:25:00,61.6,58.6,30.05,SSW,210,8.0,9.0,90,0.00,,,0.05,Wunderground v.1.15,2013-11-26 17:25:00,
2013-11-26 12:30:00,61.6,58.6,30.04,South,176,8.0,8.0,90,0.00,,,0.05,Wunderground v.1.15,2013-11-26 17:30:00,
2013-11-26 12:35:00,61.8,58.8,30.04,SE,124,9.0,9.0,90,0.00,,,0.05,Wunderground v.1.15,2013-11-26 17:35:00,
2013-11-26 12:40:00,62.1,58.8,30.04,SE,131,9.0,10.0,89,0.00,,,0.05,Wunderground v.1.15,2013-11-26 17:40:00,
2013-11-26 12:45:00,62.4,59.1,30.04,SW,222,10.0,11.0,89,0.00,,,0.05,Wunderground v.1.15,2013-11-26 17:45:00,
2013-11-26 12:50:00,62.6,59.0,30.04,SSW,194,11.0,14.0,88,0.00,,,0.05,Wunderground v.1.15,2013-11-26 17:50:00,
2013-11-26 12:55:00,62.4,58.8,30.04,SSW,202,12.0,14.0,88,0.00,,,0.06,Wunderground v.1.15,2013-11-26 17:55:00,
2013-11-26 13:00:00,62.0,58.4,30.04,South,191,11.0,11.0,88,0.00,,,0.06,Wunderground v.1.15,2013-11-26 18:00:00,
2013-11-26 13:10:00,62.4,59.1,30.03,SSE,149,12.0,12.0,89,0.00,,,0.06,Wunderground v.1.15,2013-11-26 18:10:00,
2013-11-26 13:20:00,62.3,59.0,30.02,SSE,155,9.0,9.0,89,0.00,,,0.06,Wunderground v.1.15,2013-11-26 18:20:00,
2013-11-26 13:30:00,62.0,58.7,30.01,South,172,6.0,7.0,89,0.00,,,0.06,Wunderground v.1.15,2013-11-26 18:30:00,
2013-11-26 13:40:00,62.2,59.2,30.01,SW,225,8.0,8.0,90,0.00,,,0.06,Wunderground v.1.15,2013-11-26 18:40:00,
2013-11-26 13:45:00,62.1,58.8,30.01,ESE,114,8.0,13.0,89,0.00,,,0.06,Wunderground v.1.15,2013-11-26 18:45:00,
2013-11-26 13:50:00,62.1,59.1,30.00,SSE,166,8.0,8.0,90,0.00,,,0.06,Wunderground v.1.15,2013-11-26 18:50:00,
2013-11-26 13:55:00,62.0,59.0,30.00,South,181,8.0,8.0,90,0.00,,,0.06,Wunderground v.1.15,2013-11-26 18:55:00,
2013-11-26 14:00:00,62.0,59.0,30.00,SSE,153,6.0,8.0,90,0.00,,,0.06,Wunderground v.1.15,2013-11-26 19:00:00,
2013-11-26 14:10:00,62.3,59.3,29.99,SSW,192,8.0,12.0,90,0.00,,,0.06,Wunderground v.1.15,2013-11-26 19:10:00,
2013-11-26 14:20:00,62.3,59.3,29.98,SSE,148,8.0,9.0,90,0.00,,,0.07,Wunderground v.1.15,2013-11-26 19:20:00,
2013-11-26 14:30:00,62.2,59.2,29.98,SW,219,9.0,9.0,90,0.00,,,0.07,Wunderground v.1.15,2013-11-26 19:30:00,
2013-11-26 14:45:00,61.7,59.0,29.97,South,188,6.0,6.0,91,0.05,,,0.09,Wunderground v.1.15,2013-11-26 19:45:00,
2013-11-26 14:55:00,61.9,59.5,29.96,ESE,115,5.0,7.0,92,0.05,,,0.09,Wunderground v.1.15,2013-11-26 19:55:00,
2013-11-26 15:00:00,62.1,59.7,29.96,SE,133,5.0,5.0,92,0.00,,,0.09,Wunderground v.1.15,2013-11-26 20:00:00,
2013-11-26 15:10:00,61.9,59.5,29.95,SE,145,5.0,5.0,92,0.00,,,0.10,Wunderground v.1.15,2013-11-26 20:10:00,
2013-11-26 15:15:00,61.7,59.4,29.95,ESE,109,4.0,5.0,92,0.00,,,0.10,Wunderground v.1.15,2013-11-26 20:15:00,
2013-11-26 15:25:00,61.4,59.1,29.94,SSE,148,3.0,4.0,92,0.00,,,0.10,Wunderground v.1.15,2013-11-26 20:25:00,
2013-11-26 15:30:00,61.5,59.2,29.93,SSE,154,3.0,3.0,92,0.00,,,0.10,Wunderground v.1.15,2013-11-26 20:30:00,
2013-11-26 15:35:00,61.8,59.8,29.93,South,174,3.0,3.0,93,0.00,,,0.10,Wunderground v.1.15,2013-11-26 20:35:00,
2013-11-26 15:40:00,62.0,60.0,29.93,ENE,74,4.0,5.0,93,0.00,,,0.10,Wunderground v.1.15,2013-11-26 20:40:00,
2013-11-26 15:45:00,62.0,60.0,29.92,SE,145,4.0,5.0,93,0.00,,,0.11,Wunderground v.1.15,2013-11-26 20:45:00,
2013-11-26 15:55:00,62.1,60.1,29.92,SSW,205,5.0,5.0,93,0.00,,,0.11,Wunderground v.1.15,2013-11-26 20:55:00,
2013-11-26 16:00:00,62.2,60.2,29.91,ESE,120,5.0,5.0,93,0.00,,,0.11,Wunderground v.1.15,2013-11-26 21:00:00,
2013-11-26 16:10:00,62.3,60.2,29.90,SE,128,5.0,5.0,93,0.00,,,0.11,Wunderground v.1.15,2013-11-26 21:10:00,
2013-11-26 16:15:00,62.6,60.5,29.90,South,179,6.0,8.0,93,0.00,,,0.11,Wunderground v.1.15,2013-11-26 21:15:00,
2013-11-26 16:25:00,62.6,60.5,29.89,SE,127,6.0,7.0,93,0.00,,,0.11,Wunderground v.1.15,2013-11-26 21:25:00,
2013-11-26 16:30:00,62.6,60.5,29.88,ESE,121,5.0,5.0,93,0.00,,,0.11,Wunderground v.1.15,2013-11-26 21:30:00,
2013-11-26 16:35:00,62.7,60.6,29.88,SSE,158,5.0,6.0,93,0.00,,,0.11,Wunderground v.1.15,2013-11-26 21:35:00,
2013-11-26 16:40:00,62.7,60.6,29.88,SSE,167,5.0,6.0,93,0.00,,,0.11,Wunderground v.1.15,2013-11-26 21:40:00,
2013-11-26 16:45:00,62.5,60.4,29.88,SSE,154,5.0,7.0,93,0.00,,,0.11,Wunderground v.1.15,2013-11-26 21:45:00,
2013-11-26 16:55:00,62.8,60.7,29.86,South,172,6.0,10.0,93,0.00,,,0.11,Wunderground v.1.15,2013-11-26 21:55:00,
2013-11-26 17:00:00,63.1,61.0,29.86,South,181,7.0,7.0,93,0.00,,,0.11,Wunderground v.1.15,2013-11-26 22:00:00,
2013-11-26 17:10:00,63.3,61.2,29.85,SSW,193,7.0,7.0,93,0.00,,,0.11,Wunderground v.1.15,2013-11-26 22:10:00,
2013-11-26 17:20:00,62.9,60.8,29.85,SSW,205,7.0,7.0,93,0.00,,,0.12,Wunderground v.1.15,2013-11-26 22:20:00,
2013-11-26 17:30:00,63.2,61.1,29.85,South,184,7.0,12.0,93,0.00,,,0.12,Wunderground v.1.15,2013-11-26 22:30:00,
2013-11-26 17:35:00,63.5,61.4,29.84,SE,144,8.0,12.0,93,0.00,,,0.12,Wunderground v.1.15,2013-11-26 22:35:00,
2013-11-26 17:40:00,63.7,61.6,29.84,SW,235,8.0,8.0,93,0.00,,,0.12,Wunderground v.1.15,2013-11-26 22:40:00,
2013-11-26 17:45:00,63.5,61.4,29.83,SSW,195,8.0,8.0,93,0.00,,,0.12,Wunderground v.1.15,2013-11-26 22:45:00,
2013-11-26 17:50:00,63.4,61.3,29.83,SSE,153,8.0,8.0,93,0.00,,,0.12,Wunderground v.1.15,2013-11-26 22:50:00,
2013-11-26 18:00:00,63.5,61.4,29.82,South,177,7.0,11.0,93,0.00,,,0.12,Wunderground v.1.15,2013-11-26 23:00:00,
2013-11-26 18:10:00,63.4,61.3,29.82,NNE,33,8.0,12.0,93,0.00,,,0.12,Wunderground v.1.15,2013-11-26 23:10:00,
2013-11-26 18:15:00,64.3,62.2,29.82,SSW,213,10.0,14.0,93,0.00,,,0.12,Wunderground v.1.15,2013-11-26 23:15:00,
2013-11-26 18:20:00,64.5,62.4,29.82,SSW,194,14.0,21.0,93,0.00,,,0.12,Wunderground v.1.15,2013-11-26 23:20:00,
2013-11-26 18:30:00,64.3,61.9,29.81,SSE,163,19.0,19.0,92,0.00,,,0.12,Wunderground v.1.15,2013-11-26 23:30:00,
2013-11-26 18:35:00,64.5,62.1,29.81,South,180,18.0,19.0,92,0.00,,,0.12,Wunderground v.1.15,2013-11-26 23:35:00,
2013-11-26 18:40:00,64.6,62.2,29.80,SSE,166,17.0,17.0,92,0.00,,,0.12,Wunderground v.1.15,2013-11-26 23:40:00,
2013-11-26 18:45:00,64.9,62.5,29.80,SSE,163,15.0,17.0,92,0.00,,,0.12,Wunderground v.1.15,2013-11-26 23:45:00,
2013-11-26 18:50:00,64.7,62.3,29.79,SSW,204,13.0,14.0,92,0.00,,,0.12,Wunderground v.1.15,2013-11-26 23:50:00,
2013-11-26 19:00:00,64.5,62.1,29.78,SSW,203,11.0,11.0,92,0.00,,,0.12,Wunderground v.1.15,2013-11-27 00:00:00,
2013-11-26 19:10:00,64.5,62.1,29.78,SSW,210,10.0,14.0,92,0.00,,,0.12,Wunderground v.1.15,2013-11-27 00:10:00,
2013-11-26 19:20:00,64.7,62.3,29.77,South,176,11.0,11.0,92,0.17,,,0.14,Wunderground v.1.15,2013-11-27 00:20:00,
2013-11-26 19:25:00,64.7,62.3,29.77,SSE,165,10.0,11.0,92,0.32,,,0.18,Wunderground v.1.15,2013-11-27 00:25:00,
2013-11-26 19:35:00,65.3,62.9,29.78,South,190,14.0,19.0,92,0.06,,,0.18,Wunderground v.1.15,2013-11-27 00:35:00,
2013-11-26 19:40:00,65.4,63.0,29.78,SSW,197,16.0,17.0,92,0.04,,,0.18,Wunderground v.1.15,2013-11-27 00:40:00,
2013-11-26 19:50:00,65.2,62.8,29.77,South,188,16.0,16.0,92,0.00,,,0.18,Wunderground v.1.15,2013-11-27 00:50:00,
2013-11-26 20:00:00,65.1,62.7,29.77,South,181,18.0,20.0,92,0.00,,,0.18,Wunderground v.1.15,2013-11-27 01:00:00,
2013-11-26 20:10:00,64.9,62.5,29.76,SSW,198,18.0,21.0,92,0.00,,,0.18,Wunderground v.1.15,2013-11-27 01:10:00,
2013-11-26 20:15:00,65.0,62.9,29.76,SSW,207,18.0,21.0,93,0.00,,,0.18,Wunderground v.1.15,2013-11-27 01:15:00,
2013-11-26 20:20:00,65.0,62.9,29.75,SSW,203,17.0,17.0,93,0.00,,,0.18,Wunderground v.1.15,2013-11-27 01:20:00,
2013-11-26 20:25:00,65.3,63.2,29.74,SW,228,16.0,17.0,93,0.00,,,0.18,Wunderground v.1.15,2013-11-27 01:25:00,
2013-11-26 20:35:00,64.9,62.8,29.76,WSW,249,16.0,19.0,93,0.00,,,0.18,Wunderground v.1.15,2013-11-27 01:35:00,
2013-11-26 20:40:00,64.9,62.8,29.76,SSW,211,16.0,19.0,93,1.48,,,0.31,Wunderground v.1.15,2013-11-27 01:40:00,
2013-11-26 20:45:00,65.4,63.3,29.75,SW,217,18.0,23.0,93,0.15,,,0.34,Wunderground v.1.15,2013-11-27 01:45:00,
2013-11-26 20:50:00,65.9,63.8,29.75,WSW,246,19.0,21.0,93,0.39,,,0.38,Wunderground v.1.15,2013-11-27 01:50:00,
2013-11-26 20:55:00,66.0,63.9,29.74,West,267,17.0,21.0,93,1.95,,,0.40,Wunderground v.1.15,2013-11-27 01:55:00,
2013-11-26 21:00:00,65.8,63.7,29.74,WSW,243,14.0,14.0,93,0.17,,,0.44,Wunderground v.1.15,2013-11-27 02:00:00,
2013-11-26 21:05:00,65.1,63.0,29.74,NW,316,9.0,14.0,93,0.69,,,0.50,Wunderground v.1.15,2013-11-27 02:05:00,
2013-11-26 21:10:00,65.3,63.2,29.74,SSW,211,6.0,6.0,93,0.64,,,0.59,Wunderground v.1.15,2013-11-27 02:10:00,
2013-11-26 21:15:00,65.2,63.1,29.73,ESE,115,8.0,8.0,93,0.19,,,0.61,Wunderground v.1.15,2013-11-27 02:15:00,
2013-11-26 21:20:00,64.8,62.7,29.73,WNW,301,8.0,8.0,93,0.07,,,0.61,Wunderground v.1.15,2013-11-27 02:20:00,
2013-11-26 21:25:00,64.6,62.5,29.73,SSE,150,6.0,8.0,93,0.05,,,0.61,Wunderground v.1.15,2013-11-27 02:25:00,
2013-11-26 21:30:00,64.4,62.3,29.72,SSW,196,4.0,4.0,93,0.00,,,0.61,Wunderground v.1.15,2013-11-27 02:30:00,
2013-11-26 21:40:00,64.3,62.5,29.71,ESE,115,3.0,3.0,94,0.00,,,0.62,Wunderground v.1.15,2013-11-27 02:40:00,
2013-11-26 21:45:00,64.3,62.5,29.70,NE,51,3.0,4.0,94,0.00,,,0.62,Wunderground v.1.15,2013-11-27 02:45:00,
2013-11-26 21:50:00,64.1,62.3,29.70,NE,54,3.0,3.0,94,0.00,,,0.62,Wunderground v.1.15,2013-11-27 02:50:00,
2013-11-26 21:55:00,64.1,62.3,29.70,NE,38,4.0,5.0,94,0.00,,,0.62,Wunderground v.1.15,2013-11-27 02:55:00,
2013-11-26 22:00:00,64.1,62.3,29.70,WNW,296,4.0,5.0,94,0.00,,,0.62,Wunderground v.1.15,2013-11-27 03:00:00,
2013-11-26 22:10:00,65.0,63.2,29.70,North,9,6.0,6.0,94,0.00,,,0.63,Wunderground v.1.15,2013-11-27 03:10:00,
2013-11-26 22:15:00,64.7,62.9,29.70,ENE,74,6.0,6.0,94,0.00,,,0.63,Wunderground v.1.15,2013-11-27 03:15:00,
2013-11-26 22:25:00,63.9,62.1,29.70,NE,46,5.0,5.0,94,0.00,,,0.63,Wunderground v.1.15,2013-11-27 03:25:00,
2013-11-26 22:35:00,63.3,61.5,29.69,WSW,246,4.0,6.0,94,0.00,,,0.63,Wunderground v.1.15,2013-11-27 03:35:00,
2013-11-26 22:45:00,63.0,61.2,29.69,SSW,211,4.0,7.0,94,0.00,,,0.63,Wunderground v.1.15,2013-11-27 03:45:00,
2013-11-26 22:50:00,62.9,61.1,29.68,SSE,155,3.0,4.0,94,0.00,,,0.63,Wunderground v.1.15,2013-11-27 03:50:00,
2013-11-26 22:55:00,63.2,61.4,29.68,West,269,3.0,4.0,94,0.00,,,0.63,Wunderground v.1.15,2013-11-27 03:55:00,
2013-11-26 23:00:00,63.5,61.7,29.68,WSW,253,3.0,3.0,94,0.00,,,0.63,Wunderground v.1.15,2013-11-27 04:00:00,
2013-11-26 23:10:00,63.6,61.8,29.67,NW,321,2.0,2.0,94,0.00,,,0.63,Wunderground v.1.15,2013-11-27 04:10:00,
2013-11-26 23:20:00,63.8,62.0,29.68,ESE,105,3.0,3.0,94,0.00,,,0.63,Wunderground v.1.15,2013-11-27 04:20:00,
2013-11-26 23:30:00,63.5,61.7,29.67,WSW,252,2.0,3.0,94,0.00,,,0.63,Wunderground v.1.15,2013-11-27 04:30:00,
2013-11-26 23:35:00,63.7,61.9,29.67,West,271,2.0,4.0,94,0.00,,,0.63,Wunderground v.1.15,2013-11-27 04:35:00,
2013-11-26 23:45:00,64.4,62.6,29.66,SSE,163,2.0,2.0,94,0.00,,,0.63,Wunderground v.1.15,2013-11-27 04:45:00,
2013-11-26 23:50:00,64.5,62.7,29.66,SW,229,3.0,3.0,94,0.00,,,0.63,Wunderground v.1.15,2013-11-27 04:50:00,